South River, Canada
Current Conditions -  °F | °C
As of 7:00 PM on Sunday 23 Nov 2014 (Local Time) from CYYB Reporting Station
Drizzle Drizzle  
Wind Chill: 34°   Ceiling: 200
Heat Index: 41°   Visibility: 0.75mi
Dew Point: 39°   Wind: 13mph
Humidity: 93%   Direction: 160°SSE
Pressure: 29.73"   Gusts: NA
Location:  45.85°N, 79.37°W
Report Text: CYYB 240000Z 16011KT 3/4SM R08/P6000FT/U -DZ BR OVC002 05/04 A2973 RMK ST8 SLP080
Loading
Personal Weather Stations






























Interactive Weather Map New forecast layout! Learn more

10-Day Weather Forecast

Advertisements
Track Severe Weather on mobile